Details From GMMH - DAKHLA
To GQPP - NOUADHIBOU
Flight Number -
Tags generated
Created
Modified
Stats Distance 181 nm / 335 km
Max Altitude 12,500 ft / 3,810 m
Waypoints 5
Social Downloads 0
Likes 0
Share VATSIM

Download

Looking for another format? Having issues loading an existing format? Contact us
Advertisement - Login to hide

Notes

Basic altitude profile: - Ascent Rate: 2500ft/min - Ascent Speed: 250kts - Cruise Altitude: 35000ft - Cruise Speed: 420kts - Descent Rate: 1500ft/min - Descent Speed: 250kts Options: - Use NATs: yes - Use PACOTS: yes - Use low airways: yes - Use high airways: yes

Route

GMMH DKH B600G LOLOS A600F MAURI GQPP

ID Type Via Altitude Latitude Longitude Leg Dist Tot Dist Heading (true) Name
O GMMH APT - 0 ft / 0 m 23.71829˚ -15.93199˚ - 0 nm - DAKHLA
DKH VOR - 400 ft / 122 m 23.73977˚ -15.92632˚ 1 nm 1 nm 14° / 14° DAKHLA VOR-DME
LOLOS FIX B600G (AWY-LO) 12,500 ft / 3,810 m 21.85000˚ -16.66667˚ 120 nm 121 nm 200° / 200° -
MAURI FIX A600F (AWY-LO) 5,500 ft / 1,676 m 21.33333˚ -16.86667˚ 32 nm 154 nm 200° / 200° -
O GQPP APT - 0 ft / 0 m 20.93293˚ -17.02991˚ 25 nm 180 nm 201° / 201° NOUADHIBOU

Altitude Profile

Advertisement - Login to hide

Weather


0- 5 10 15 20 25 30 35+ Temperature / ° C

Clouds and Precipitation
Forecast for 2018-05-24 06:00 UTC. Updated 3 hours ago

Ground ~20,000 ft ~40,000 ft Winds

GMMH

Details ICAO GMMH (VIL)
Name DAKHLA
Region Morocco
Timezone Africa/El_Aaiun (UTC+0.0)
Stats Elevation 36 ft / 11 m (AMSL)
Location 23.718294° -15.931993°
Runways 1
Magnetic Variation 5.217° W

METAR

GMMH 240800Z 07013KT CAVOK 18/14 Q1017 NOSIG

Decode

TAF

TAF GMMH 240500Z 2406/2512 34016KT 8000 SCT010= TAF GMMI 240500Z 2406/2512 VRB02KT 8000 SCT013 BECMG 2406/2409 25008KT PROB30 2500/2506 VRB02KT 4000 BR SCT008

Decode

Departure Runways

ID Width Length Bearing (true) Bearing (mag) Surface Threshold Offset Overrun Length
03 148 ft / 45 m 9,886 ft / 3,013 m 22.66° 27.88° Asphalt 0 ft / 0 m 323 ft / 98 m
21 148 ft / 45 m 9,886 ft / 3,013 m 202.67° 207.89° Asphalt 0 ft / 0 m 377 ft / 115 m

GQPP

Details ICAO GQPP (NDB)
Name NOUADHIBOU
Region Mauritania
Timezone Africa/Nouakchott (UTC+0.0)
Stats Elevation 16 ft / 5 m (AMSL)
Location 20.932931° -17.029914°
Runways 1
Magnetic Variation 5.997° W

METAR

GQPP 240800Z 01017KT 8000 SCT006 18/15 Q1016 NOSIG

Decode

TAF

TAF GQPP 240500Z 2406/2506 36016KT 7000 NSC

Decode

Destination Runways

ID Width Length Bearing (true) Bearing (mag) Surface Threshold Offset Overrun Length
02 148 ft / 45 m 7,995 ft / 2,437 m 14.33° 20.33° Asphalt 0 ft / 0 m 0 ft / 0 m
20 148 ft / 45 m 7,995 ft / 2,437 m 194.33° 200.33° Asphalt 0 ft / 0 m 0 ft / 0 m

Popular Alternatives